sensor_id;sensor_type;location;lat;lon;timestamp;pressure;altitude;pressure_sealevel;temperature;humidity
41102;BME280;26845;50.190;19.178;2023-03-25T07:51:36;97677.45;;;12.42;79.75
41102;BME280;26845;50.190;19.178;2023-03-25T07:54:02;97681.62;;;12.61;78.87
41102;BME280;26845;50.190;19.178;2023-03-25T07:56:30;97682.04;;;12.71;76.11
41102;BME280;26845;50.190;19.178;2023-03-25T07:59:17;97678.35;;;12.57;76.80
41102;BME280;26845;50.190;19.178;2023-03-25T08:01:51;97677.10;;;12.47;76.76
41102;BME280;26845;50.190;19.178;2023-03-25T08:04:41;97678.91;;;12.41;76.36
41102;BME280;26845;50.190;19.178;2023-03-25T08:07:07;97673.20;;;12.44;75.20
41102;BME280;26845;50.190;19.178;2023-03-25T08:09:41;97671.73;;;12.54;74.76
41102;BME280;26845;50.190;19.178;2023-03-25T08:12:08;97667.56;;;12.72;76.25
41102;BME280;26845;50.190;19.178;2023-03-25T08:14:54;97674.51;;;12.81;74.91
41102;BME280;26845;50.190;19.178;2023-03-25T08:17:57;97674.85;;;12.80;74.30
41102;BME280;26845;50.190;19.178;2023-03-25T08:20:45;97675.93;;;12.93;73.99
41102;BME280;26845;50.190;19.178;2023-03-25T08:23:53;97666.02;;;13.24;72.10
41102;BME280;26845;50.190;19.178;2023-03-25T08:27:02;97659.36;;;13.56;70.70
41102;BME280;26845;50.190;19.178;2023-03-25T08:29:48;97666.85;;;13.64;67.25
41102;BME280;26845;50.190;19.178;2023-03-25T08:32:19;97659.38;;;13.46;69.80
41102;BME280;26845;50.190;19.178;2023-03-25T08:34:46;97666.34;;;13.41;66.95
41102;BME280;26845;50.190;19.178;2023-03-25T08:37:13;97663.65;;;13.49;67.17
41102;BME280;26845;50.190;19.178;2023-03-25T08:39:41;97671.52;;;13.55;67.99
41102;BME280;26845;50.190;19.178;2023-03-25T08:42:21;97663.74;;;13.67;67.92
41102;BME280;26845;50.190;19.178;2023-03-25T08:44:48;97668.05;;;13.75;69.20
41102;BME280;26845;50.190;19.178;2023-03-25T08:47:14;97673.80;;;13.82;69.22
41102;BME280;26845;50.190;19.178;2023-03-25T08:49:49;97675.77;;;13.88;66.94
41102;BME280;26845;50.190;19.178;2023-03-25T08:52:15;97672.33;;;13.83;65.79
41102;BME280;26845;50.190;19.178;2023-03-25T08:54:41;97679.14;;;13.70;65.71
41102;BME280;26845;50.190;19.178;2023-03-25T08:57:11;97669.81;;;13.63;66.18
41102;BME280;26845;50.190;19.178;2023-03-25T08:59:49;97664.30;;;13.71;67.00
41102;BME280;26845;50.190;19.178;2023-03-25T09:02:15;97658.10;;;13.83;68.49
41102;BME280;26845;50.190;19.178;2023-03-25T09:04:42;97657.73;;;14.04;66.86
41102;BME280;26845;50.190;19.178;2023-03-25T09:07:08;97652.35;;;14.20;66.26
41102;BME280;26845;50.190;19.178;2023-03-25T09:09:38;97650.45;;;14.27;64.63
41102;BME280;26845;50.190;19.178;2023-03-25T09:12:05;97656.54;;;14.23;62.85
41102;BME280;26845;50.190;19.178;2023-03-25T09:14:32;97651.35;;;14.07;64.13
41102;BME280;26845;50.190;19.178;2023-03-25T09:16:59;97649.99;;;14.00;65.17
41102;BME280;26845;50.190;19.178;2023-03-25T09:19:26;97648.25;;;13.99;65.08
41102;BME280;26845;50.190;19.178;2023-03-25T09:21:52;97661.11;;;14.04;61.16
41102;BME280;26845;50.190;19.178;2023-03-25T09:24:18;97661.08;;;14.03;62.89
41102;BME280;26845;50.190;19.178;2023-03-25T09:26:47;97648.79;;;14.11;63.22
41102;BME280;26845;50.190;19.178;2023-03-25T09:29:13;97654.33;;;14.40;63.90
41102;BME280;26845;50.190;19.178;2023-03-25T09:31:39;97655.42;;;14.58;62.94
41102;BME280;26845;50.190;19.178;2023-03-25T09:34:05;97653.03;;;14.59;62.57
41102;BME280;26845;50.190;19.178;2023-03-25T09:36:31;97651.64;;;14.61;62.41
41102;BME280;26845;50.190;19.178;2023-03-25T09:38:58;97643.62;;;14.60;61.73
41102;BME280;26845;50.190;19.178;2023-03-25T09:47:08;97655.77;;;14.65;60.12
41102;BME280;26845;50.190;19.178;2023-03-25T09:49:43;97655.42;;;14.58;59.79
41102;BME280;26845;50.190;19.178;2023-03-25T09:52:20;97653.40;;;14.26;57.85
41102;BME280;26845;50.190;19.178;2023-03-25T09:54:57;97646.88;;;14.06;60.12
41102;BME280;26845;50.190;19.178;2023-03-25T09:57:29;97629.05;;;13.93;59.46
41102;BME280;26845;50.190;19.178;2023-03-25T10:00:35;97635.85;;;13.80;58.54
41102;BME280;26845;50.190;19.178;2023-03-25T10:03:50;97621.98;;;13.72;58.67
41102;BME280;26845;50.190;19.178;2023-03-25T10:06:22;97618.23;;;13.76;59.32
41102;BME280;26845;50.190;19.178;2023-03-25T10:09:40;97608.70;;;13.90;60.02
41102;BME280;26845;50.190;19.178;2023-03-25T10:12:46;97596.20;;;14.29;60.74
41102;BME280;26845;50.190;19.178;2023-03-25T10:18:39;97586.59;;;15.43;55.98
41102;BME280;26845;50.190;19.178;2023-03-25T10:21:51;97586.92;;;15.71;54.79
41102;BME280;26845;50.190;19.178;2023-03-25T10:24:30;97577.48;;;15.90;57.13
41102;BME280;26845;50.190;19.178;2023-03-25T10:30:46;97577.08;;;16.74;53.20
41102;BME280;26845;50.190;19.178;2023-03-25T10:34:16;97568.61;;;16.43;51.93
41102;BME280;26845;50.190;19.178;2023-03-25T10:36:52;97571.19;;;15.81;52.22
41102;BME280;26845;50.190;19.178;2023-03-25T10:39:24;97566.90;;;15.48;53.96
41102;BME280;26845;50.190;19.178;2023-03-25T10:42:03;97573.73;;;15.16;54.69
41102;BME280;26845;50.190;19.178;2023-03-25T10:44:57;97590.83;;;14.90;56.22
41102;BME280;26845;50.190;19.178;2023-03-25T10:47:53;97609.20;;;14.41;57.66
41102;BME280;26845;50.190;19.178;2023-03-25T10:50:29;97621.27;;;13.74;60.51
41102;BME280;26845;50.190;19.178;2023-03-25T10:53:40;97628.92;;;13.17;62.42
41102;BME280;26845;50.190;19.178;2023-03-25T10:56:47;97627.83;;;12.78;63.06
41102;BME280;26845;50.190;19.178;2023-03-25T11:00:02;97623.57;;;12.58;63.09
41102;BME280;26845;50.190;19.178;2023-03-25T11:03:27;97613.23;;;12.47;63.01
41102;BME280;26845;50.190;19.178;2023-03-25T11:06:51;97602.50;;;12.63;63.36
41102;BME280;26845;50.190;19.178;2023-03-25T11:10:29;97602.70;;;13.07;64.20
41102;BME280;26845;50.190;19.178;2023-03-25T11:13:57;97598.36;;;13.39;63.47
41102;BME280;26845;50.190;19.178;2023-03-25T11:17:06;97593.65;;;13.45;63.17
41102;BME280;26845;50.190;19.178;2023-03-25T11:20:30;97587.00;;;13.48;63.29
41102;BME280;26845;50.190;19.178;2023-03-25T11:23:43;97584.82;;;13.62;63.46
41102;BME280;26845;50.190;19.178;2023-03-25T11:27:09;97583.54;;;13.50;62.96
41102;BME280;26845;50.190;19.178;2023-03-25T11:30:31;97570.33;;;13.44;63.31
41102;BME280;26845;50.190;19.178;2023-03-25T11:34:16;97560.14;;;13.96;64.69
41102;BME280;26845;50.190;19.178;2023-03-25T11:37:20;97552.92;;;14.38;63.72
41102;BME280;26845;50.190;19.178;2023-03-25T11:39:52;97551.25;;;14.94;63.99
41102;BME280;26845;50.190;19.178;2023-03-25T11:42:40;97557.73;;;15.67;63.82
41102;BME280;26845;50.190;19.178;2023-03-25T11:48:07;97557.95;;;15.71;62.35
41102;BME280;26845;50.190;19.178;2023-03-25T11:50:34;97559.58;;;15.57;60.86
41102;BME280;26845;50.190;19.178;2023-03-25T11:53:05;97554.02;;;15.19;60.46
41102;BME280;26845;50.190;19.178;2023-03-25T11:55:52;97549.81;;;14.94;61.05
41102;BME280;26845;50.190;19.178;2023-03-25T11:58:27;97545.31;;;14.92;61.72
41102;BME280;26845;50.190;19.178;2023-03-25T12:01:22;97545.70;;;15.13;61.73
41102;BME280;26845;50.190;19.178;2023-03-25T12:04:32;97545.98;;;15.22;59.35
41102;BME280;26845;50.190;19.178;2023-03-25T12:07:09;97547.51;;;15.05;56.37
41102;BME280;26845;50.190;19.178;2023-03-25T12:09:52;97561.02;;;14.79;55.53
41102;BME280;26845;50.190;19.178;2023-03-25T12:12:32;97552.48;;;14.61;56.24
41102;BME280;26845;50.190;19.178;2023-03-25T12:21:08;97550.23;;;14.34;57.02
41102;BME280;26845;50.190;19.178;2023-03-25T12:23:47;97547.01;;;14.32;56.60
41102;BME280;26845;50.190;19.178;2023-03-25T12:26:34;97540.88;;;14.29;56.32
41102;BME280;26845;50.190;19.178;2023-03-25T12:29:31;97535.04;;;14.28;56.46
41102;BME280;26845;50.190;19.178;2023-03-25T12:35:45;97543.23;;;14.08;56.35
41102;BME280;26845;50.190;19.178;2023-03-25T12:38:48;97536.39;;;14.01;56.76
41102;BME280;26845;50.190;19.178;2023-03-25T12:41:36;97544.06;;;13.98;57.26
41102;BME280;26845;50.190;19.178;2023-03-25T12:44:11;97536.91;;;13.96;57.93
41102;BME280;26845;50.190;19.178;2023-03-25T12:47:11;97547.18;;;13.86;57.92
41102;BME280;26845;50.190;19.178;2023-03-25T12:50:16;97541.75;;;13.65;58.05
41102;BME280;26845;50.190;19.178;2023-03-25T12:53:15;97554.27;;;13.32;58.91
41102;BME280;26845;50.190;19.178;2023-03-25T12:56:30;97578.80;;;12.83;59.87
41102;BME280;26845;50.190;19.178;2023-03-25T13:02:03;97583.13;;;12.06;61.85
41102;BME280;26845;50.190;19.178;2023-03-25T13:07:57;97577.20;;;11.80;61.99
41102;BME280;26845;50.190;19.178;2023-03-25T13:11:03;97574.10;;;12.09;62.78
41102;BME280;26845;50.190;19.178;2023-03-25T13:14:16;97570.52;;;12.35;62.91
41102;BME280;26845;50.190;19.178;2023-03-25T13:16:57;97564.88;;;12.58;63.46
41102;BME280;26845;50.190;19.178;2023-03-25T13:19:28;97566.08;;;12.65;62.64
41102;BME280;26845;50.190;19.178;2023-03-25T13:22:06;97562.62;;;12.53;62.76
41102;BME280;26845;50.190;19.178;2023-03-25T13:25:26;97567.10;;;12.42;62.79
41102;BME280;26845;50.190;19.178;2023-03-25T13:28:50;97570.88;;;12.28;63.57
41102;BME280;26845;50.190;19.178;2023-03-25T13:31:41;97569.36;;;12.13;63.81
41102;BME280;26845;50.190;19.178;2023-03-25T13:34:43;97559.29;;;12.02;64.27
41102;BME280;26845;50.190;19.178;2023-03-25T13:37:18;97549.59;;;12.20;65.33
41102;BME280;26845;50.190;19.178;2023-03-25T13:43:24;97542.69;;;12.75;65.04
41102;BME280;26845;50.190;19.178;2023-03-25T13:46:30;97534.05;;;12.90;65.23
41102;BME280;26845;50.190;19.178;2023-03-25T13:49:56;97533.39;;;12.94;65.08
41102;BME280;26845;50.190;19.178;2023-03-25T13:53:13;97530.18;;;12.96;65.54
41102;BME280;26845;50.190;19.178;2023-03-25T14:00:28;97521.56;;;13.31;65.54
41102;BME280;26845;50.190;19.178;2023-03-25T14:04:21;97520.25;;;13.45;64.95
41102;BME280;26845;50.190;19.178;2023-03-25T14:07:45;97513.56;;;13.59;65.46
41102;BME280;26845;50.190;19.178;2023-03-25T14:14:44;97507.98;;;13.85;62.26
41102;BME280;26845;50.190;19.178;2023-03-25T17:51:11;97634.15;;;10.00;62.81
41102;BME280;26845;50.190;19.178;2023-03-25T17:54:16;97634.16;;;9.96;62.98
41102;BME280;26845;50.190;19.178;2023-03-25T17:57:33;97633.55;;;9.95;63.11
